< < Back
Terminal Aerodrome Forecast


Current Version              Previous Versions:   1  2  3  4  5  6  7  8  9  

Terminal Aerodrome Forecast

911
FTUS42 KCHS 270000 AAA
TAFSAV
TAF AMD
KSAV 270048Z 2701/2724 VRB05KT P6SM SCT250
     FM271600 01009KT P6SM SCT050=

Latest METAR

428
SAUS80 KWBC 271700
MTRSAV
METAR KSAV 271653Z 02009KT 10SM CLR 31/15 A3004 RMK AO2 SLP171
T03060150


USA.gov is the U.S. government's official web portal to all federal, state and local government web resources and services.